createdAt,value
2018-04-22T00:00:14.204Z,18.90
2018-04-22T00:02:42.482Z,18.90
2018-04-22T00:05:13.061Z,18.90
2018-04-22T00:10:10.764Z,18.80
2018-04-22T00:12:40.203Z,18.70
2018-04-22T00:15:08.441Z,18.80
2018-04-22T00:17:36.684Z,18.70
2018-04-22T00:20:04.997Z,18.70
2018-04-22T00:22:34.735Z,18.70
2018-04-22T00:25:03.754Z,18.60
2018-04-22T00:27:32.797Z,18.60
2018-04-22T00:30:01.036Z,18.60
2018-04-22T00:32:29.278Z,18.60
2018-04-22T00:37:27.413Z,18.50
2018-04-22T00:39:55.701Z,18.50
2018-04-22T00:42:25.226Z,18.50
2018-04-22T00:44:53.444Z,18.40
2018-04-22T00:47:21.714Z,18.40
2018-04-22T00:49:49.976Z,18.40
2018-04-22T00:52:18.219Z,18.40
2018-04-22T00:54:46.499Z,18.40
2018-04-22T00:59:44.267Z,18.30
2018-04-22T01:02:12.508Z,18.30
2018-04-22T01:04:41.936Z,18.30
2018-04-22T01:07:10.581Z,18.20
2018-04-22T01:09:38.819Z,18.20
2018-04-22T01:14:36.954Z,18.10
2018-04-22T01:17:05.209Z,18.10
2018-04-22T01:19:34.727Z,18.00
2018-04-22T01:22:03.363Z,18.00
2018-04-22T01:24:31.604Z,18.00
2018-04-22T01:27:00.768Z,18.00
2018-04-22T01:29:29.760Z,18.00
2018-04-22T01:31:58.387Z,17.90
2018-04-22T01:36:56.135Z,17.90
2018-04-22T01:39:24.375Z,17.80
2018-04-22T01:41:53.420Z,17.80
2018-04-22T01:44:22.429Z,17.80
2018-04-22T01:46:51.446Z,17.70
2018-04-22T01:49:21.601Z,17.70
2018-04-22T01:51:50.601Z,17.70
2018-04-22T01:54:18.876Z,17.70
2018-04-22T01:56:47.151Z,17.70
2018-04-22T01:59:15.389Z,17.60
2018-04-22T02:01:44.124Z,17.70
2018-04-22T02:04:13.507Z,17.70
2018-04-22T02:06:43.257Z,17.70
2018-04-22T02:09:11.528Z,17.70
2018-04-22T02:11:40.304Z,17.70
2018-04-22T02:14:08.539Z,17.70
2018-04-22T02:16:37.584Z,17.70
2018-04-22T02:19:05.823Z,17.70
2018-04-22T02:21:34.102Z,17.70
2018-04-22T02:24:02.348Z,17.70
2018-04-22T02:26:32.091Z,17.70
2018-04-22T02:29:00.533Z,17.70
2018-04-22T02:31:28.780Z,17.70
2018-04-22T02:33:58.533Z,17.80
2018-04-22T02:36:26.827Z,17.70
2018-04-22T02:38:56.590Z,17.80
2018-04-22T02:41:24.828Z,17.70
2018-04-22T02:43:53.128Z,17.60
2018-04-22T02:48:51.233Z,17.60
2018-04-22T02:51:19.505Z,17.60
2018-04-22T02:56:17.923Z,17.50
2018-04-22T02:58:46.176Z,17.60
2018-04-22T03:01:14.429Z,17.50
2018-04-22T03:03:42.736Z,17.50
2018-04-22T03:06:12.075Z,17.50
2018-04-22T03:08:41.084Z,17.50
2018-04-22T03:11:10.532Z,17.40
2018-04-22T03:13:38.778Z,17.40
2018-04-22T03:16:08.481Z,17.40
2018-04-22T03:21:06.615Z,17.40
2018-04-22T03:23:34.855Z,17.40
2018-04-22T03:26:04.036Z,17.40
2018-04-22T03:28:33.049Z,17.40
2018-04-22T03:31:02.064Z,17.40
2018-04-22T03:33:31.112Z,17.40
2018-04-22T03:35:59.355Z,17.50
2018-04-22T03:38:27.605Z,17.40
2018-04-22T03:40:55.887Z,17.40
2018-04-22T03:43:24.124Z,17.40
2018-04-22T03:45:53.876Z,17.40
2018-04-22T03:48:22.151Z,17.40
2018-04-22T03:50:50.396Z,17.40
2018-04-22T03:53:19.199Z,17.40
2018-04-22T03:55:48.233Z,17.30
2018-04-22T03:58:16.484Z,17.30
2018-04-22T04:00:44.765Z,17.30
2018-04-22T04:03:14.499Z,17.30
2018-04-22T04:05:43.583Z,17.20
2018-04-22T04:08:12.597Z,17.30
2018-04-22T04:10:40.840Z,17.20
2018-04-22T04:13:09.863Z,17.20
2018-04-22T04:21:27.497Z,17.10
2018-04-22T04:27:22.252Z,17.10
2018-04-22T04:32:19.982Z,17.00
2018-04-22T04:34:48.483Z,17.00
2018-04-22T04:37:16.746Z,17.00
2018-04-22T04:39:44.984Z,17.00
2018-04-22T04:42:13.247Z,17.00
2018-04-22T04:44:42.251Z,17.00
2018-04-22T04:47:11.259Z,17.00
2018-04-22T04:49:40.855Z,17.00
2018-04-22T04:52:09.685Z,17.00
2018-04-22T04:54:38.317Z,17.00
2018-04-22T04:57:06.998Z,17.00
2018-04-22T04:59:35.244Z,17.00
2018-04-22T05:02:04.992Z,17.00
2018-04-22T05:07:03.511Z,17.00
2018-04-22T05:09:31.765Z,17.10
2018-04-22T05:12:00.068Z,17.10
2018-04-22T05:17:21.010Z,17.20
2018-04-22T05:22:18.707Z,17.30
2018-04-22T05:24:47.223Z,17.30
2018-04-22T05:27:16.962Z,17.30
2018-04-22T05:29:45.203Z,17.30
2018-04-22T05:32:13.491Z,17.40
2018-04-22T05:37:11.188Z,17.40
2018-04-22T05:39:39.465Z,17.50
2018-04-22T05:42:07.698Z,17.60
2018-04-22T05:44:35.999Z,17.60
2018-04-22T05:47:05.427Z,17.60
2018-04-22T05:49:33.667Z,17.70
2018-04-22T05:52:02.263Z,17.80
2018-04-22T05:54:30.504Z,17.80
2018-04-22T05:59:28.247Z,17.90
2018-04-22T06:01:56.486Z,18.00
2018-04-22T06:04:25.859Z,18.10
2018-04-22T06:09:24.392Z,18.20
2018-04-22T06:11:52.631Z,18.30
2018-04-22T06:14:20.934Z,18.40
2018-04-22T06:16:49.171Z,18.50
2018-04-22T06:21:46.910Z,18.90
2018-04-22T06:24:15.151Z,19.00
2018-04-22T06:29:13.287Z,19.30
2018-04-22T06:31:41.519Z,19.60
2018-04-22T06:34:09.754Z,19.70
2018-04-22T06:36:38.042Z,19.80
2018-04-22T06:39:07.416Z,20.00
2018-04-22T06:41:35.660Z,20.10
2018-04-22T06:44:03.962Z,20.30
2018-04-22T06:46:32.194Z,20.30
2018-04-22T06:49:00.439Z,20.50
2018-04-22T06:51:28.730Z,20.60
2018-04-22T06:56:26.431Z,20.90
2018-04-22T06:58:55.114Z,21.00
2018-04-22T07:01:24.487Z,21.10
2018-04-22T07:03:52.722Z,21.20
2018-04-22T07:06:21.005Z,21.30
2018-04-22T07:08:49.238Z,21.40
2018-04-22T07:11:18.985Z,21.50
2018-04-22T07:13:48.018Z,21.60
2018-04-22T07:16:17.394Z,21.70
2018-04-22T07:18:45.666Z,21.90
2018-04-22T07:21:13.943Z,22.00
2018-04-22T07:23:42.183Z,22.20
2018-04-22T07:26:10.467Z,22.30
2018-04-22T07:28:38.705Z,22.40
2018-04-22T07:31:08.446Z,22.40
2018-04-22T07:33:36.740Z,22.60
2018-04-22T07:36:04.985Z,22.60
2018-04-22T07:38:34.346Z,22.80
2018-04-22T07:41:02.634Z,22.90
2018-04-22T07:43:30.867Z,22.90
2018-04-22T07:45:59.501Z,23.10
2018-04-22T07:48:27.793Z,23.20
2018-04-22T07:50:57.535Z,23.30
2018-04-22T07:53:25.842Z,23.50
2018-04-22T07:55:54.084Z,23.60
2018-04-22T07:58:23.335Z,23.70
2018-04-22T08:00:51.563Z,23.70
2018-04-22T08:03:19.875Z,23.90
2018-04-22T08:05:49.247Z,23.90
2018-04-22T08:08:17.891Z,24.00
2018-04-22T08:10:46.175Z,24.10
2018-04-22T08:13:14.411Z,24.30
2018-04-22T08:15:43.787Z,24.50
2018-04-22T08:18:12.074Z,24.60
2018-04-22T08:20:40.707Z,24.80
2018-04-22T08:25:38.458Z,25.20
2018-04-22T08:28:06.688Z,25.50
2018-04-22T08:30:36.435Z,25.70
2018-04-22T08:33:05.494Z,25.70
2018-04-22T08:35:33.730Z,25.90
2018-04-22T08:38:01.977Z,26.00
2018-04-22T08:40:31.024Z,26.10
2018-04-22T08:42:59.262Z,26.30
2018-04-22T08:45:27.894Z,26.40
2018-04-22T08:50:25.643Z,26.60
2018-04-22T08:52:53.878Z,26.80
2018-04-22T08:55:22.550Z,26.90
2018-04-22T08:57:51.927Z,27.10
2018-04-22T09:00:20.171Z,27.40
2018-04-22T09:02:48.439Z,27.70
2018-04-22T09:05:16.678Z,28.10
2018-04-22T09:07:44.967Z,28.60
2018-04-22T09:12:42.695Z,30.20
2018-04-22T09:15:11.766Z,31.30
2018-04-22T09:17:40.771Z,32.60
2018-04-22T09:25:09.481Z,36.50
2018-04-22T09:27:37.715Z,37.40
2018-04-22T09:30:07.169Z,38.00
2018-04-22T09:35:05.644Z,38.80
2018-04-22T09:37:33.924Z,39.20
2018-04-22T09:40:02.164Z,39.50
2018-04-22T09:42:30.404Z,39.70
2018-04-22T09:44:59.895Z,39.70
2018-04-22T09:47:28.135Z,39.70
2018-04-22T09:49:57.157Z,39.40
2018-04-22T09:52:26.187Z,38.80
2018-04-22T09:54:54.829Z,38.00
2018-04-22T09:57:23.054Z,37.30
2018-04-22T09:59:51.339Z,36.60
2018-04-22T10:02:25.315Z,35.70
2018-04-22T10:04:55.127Z,34.90
2018-04-22T10:07:23.343Z,34.30
2018-04-22T10:09:51.579Z,33.70
2018-04-22T10:12:19.888Z,33.00
2018-04-22T10:14:48.160Z,32.40
2018-04-22T10:17:17.534Z,32.00
2018-04-22T10:19:45.832Z,31.50
2018-04-22T10:22:14.071Z,31.20
2018-04-22T10:24:42.310Z,31.10
2018-04-22T10:29:40.463Z,30.90
2018-04-22T10:32:08.707Z,30.70
2018-04-22T10:34:37.014Z,30.50
2018-04-22T10:39:36.207Z,30.30
2018-04-22T10:42:04.896Z,30.50
2018-04-22T10:44:33.128Z,30.60
2018-04-22T10:49:30.900Z,30.90
2018-04-22T10:51:59.540Z,30.90
2018-04-22T10:54:27.787Z,30.90
2018-04-22T10:56:56.067Z,31.00
2018-04-22T10:59:25.438Z,31.10
2018-04-22T11:01:53.731Z,31.30
2018-04-22T11:04:22.006Z,31.40
2018-04-22T11:06:50.243Z,31.40
2018-04-22T11:09:18.484Z,31.30
2018-04-22T11:11:47.908Z,31.10
2018-04-22T11:16:46.011Z,31.30
2018-04-22T11:19:14.297Z,31.40
2018-04-22T11:21:42.527Z,31.60
2018-04-22T11:24:10.762Z,31.80
2018-04-22T11:26:40.563Z,31.90
2018-04-22T11:29:08.806Z,31.90
2018-04-22T11:31:38.541Z,31.80
2018-04-22T11:34:07.967Z,31.60
2018-04-22T11:36:36.967Z,31.40
2018-04-22T11:39:06.116Z,31.30
2018-04-22T11:41:35.154Z,31.20
2018-04-22T11:44:03.395Z,31.30
2018-04-22T11:46:32.017Z,31.40
2018-04-22T11:49:00.293Z,31.50
2018-04-22T11:51:29.659Z,31.50
2018-04-22T11:53:58.655Z,31.50
2018-04-22T11:56:26.933Z,31.50
2018-04-22T11:58:55.928Z,31.50
2018-04-22T12:03:54.791Z,31.60
2018-04-22T12:06:23.014Z,31.70
2018-04-22T12:08:51.245Z,31.80
2018-04-22T12:13:52.722Z,31.90
2018-04-22T12:16:20.954Z,31.70
2018-04-22T12:18:49.255Z,31.40
2018-04-22T12:21:17.483Z,31.20
2018-04-22T12:23:46.847Z,30.80
2018-04-22T12:26:15.138Z,30.60
2018-04-22T12:28:43.364Z,30.30
2018-04-22T12:31:12.355Z,29.90
2018-04-22T12:33:41.398Z,29.60
2018-04-22T12:36:09.639Z,29.20
2018-04-22T12:38:37.859Z,28.90
2018-04-22T12:41:06.562Z,28.60
2018-04-22T12:46:04.233Z,28.30
2018-04-22T12:51:02.347Z,28.10
2018-04-22T12:53:31.342Z,28.10
2018-04-22T12:56:01.134Z,28.20
2018-04-22T12:58:29.363Z,28.40
2018-04-22T13:00:57.604Z,28.50
2018-04-22T13:03:27.137Z,28.50
2018-04-22T13:05:56.911Z,28.60
2018-04-22T13:08:25.876Z,28.70
2018-04-22T13:10:54.921Z,28.90
2018-04-22T13:13:23.147Z,29.10
2018-04-22T13:20:51.834Z,29.50
2018-04-22T13:23:20.065Z,29.60
2018-04-22T13:25:48.370Z,29.70
2018-04-22T13:28:16.542Z,29.70
2018-04-22T13:35:44.850Z,29.80
2018-04-22T13:38:13.092Z,29.80
2018-04-22T13:40:42.503Z,29.80
2018-04-22T13:43:10.735Z,29.80
2018-04-22T13:45:38.972Z,29.80
2018-04-22T13:48:07.248Z,29.70
2018-04-22T13:50:35.479Z,29.60
2018-04-22T13:53:03.711Z,29.60
2018-04-22T13:55:31.979Z,29.50
2018-04-22T13:58:01.352Z,29.40
2018-04-22T14:00:33.030Z,29.40
2018-04-22T14:03:01.656Z,29.30
2018-04-22T14:05:30.643Z,29.10
2018-04-22T14:10:28.379Z,28.90
2018-04-22T14:12:56.607Z,28.80
2018-04-22T14:15:26.034Z,28.70
2018-04-22T14:17:54.267Z,28.60
2018-04-22T14:20:22.499Z,28.50
2018-04-22T14:22:50.774Z,28.30
2018-04-22T14:25:19.029Z,28.20
2018-04-22T14:27:47.237Z,28.10
2018-04-22T14:30:15.514Z,27.90
2018-04-22T14:32:44.874Z,27.80
2018-04-22T14:35:13.106Z,27.70
2018-04-22T14:37:41.387Z,27.70
2018-04-22T14:40:09.624Z,27.60
2018-04-22T14:42:37.859Z,27.60
2018-04-22T14:47:41.434Z,27.50
2018-04-22T14:50:09.658Z,27.40
2018-04-22T14:52:37.943Z,27.30
2018-04-22T14:55:07.682Z,27.20
2018-04-22T14:57:35.912Z,27.20
2018-04-22T15:00:04.191Z,27.00
2018-04-22T15:05:02.395Z,27.00
2018-04-22T15:07:30.670Z,27.10
2018-04-22T15:10:00.398Z,26.90
2018-04-22T15:12:28.635Z,26.90
2018-04-22T15:14:56.918Z,26.80
2018-04-22T15:17:25.151Z,26.60
2018-04-22T15:19:54.887Z,26.60
2018-04-22T15:22:23.938Z,26.50
2018-04-22T15:24:52.174Z,26.40
2018-04-22T15:29:51.955Z,26.30
2018-04-22T15:32:24.710Z,26.30
2018-04-22T15:34:53.748Z,26.30
2018-04-22T15:42:21.958Z,26.30
2018-04-22T15:44:50.187Z,26.30
2018-04-22T15:47:19.219Z,26.30
2018-04-22T15:49:48.951Z,26.40
2018-04-22T15:52:18.702Z,26.40
2018-04-22T15:54:47.390Z,26.40
2018-04-22T15:57:15.606Z,26.40
2018-04-22T15:59:45.024Z,26.50
2018-04-22T16:02:18.387Z,26.50
2018-04-22T16:04:47.761Z,26.50
2018-04-22T16:07:17.138Z,26.50
2018-04-22T16:09:45.402Z,26.50
2018-04-22T16:12:15.135Z,26.50
2018-04-22T16:14:44.559Z,26.40
2018-04-22T16:17:13.528Z,26.40
2018-04-22T16:19:41.750Z,26.30
2018-04-22T16:22:09.999Z,26.30
2018-04-22T16:27:08.170Z,26.20
2018-04-22T16:29:36.409Z,26.20
2018-04-22T16:32:04.718Z,26.20
2018-04-22T16:34:32.974Z,26.10
2018-04-22T16:39:31.115Z,26.10
2018-04-22T16:41:59.351Z,26.00
2018-04-22T16:44:27.610Z,26.00
2018-04-22T16:49:25.771Z,26.00
2018-04-22T16:51:54.011Z,26.00
2018-04-22T16:56:51.743Z,26.00
2018-04-22T16:59:20.003Z,25.90
2018-04-22T17:01:48.301Z,25.90
2018-04-22T17:04:18.035Z,25.90
2018-04-22T17:06:46.280Z,25.80
2018-04-22T17:09:14.585Z,25.80
2018-04-22T17:14:12.288Z,25.70
2018-04-22T17:16:40.590Z,25.60
2018-04-22T17:19:08.837Z,25.50
2018-04-22T17:21:38.213Z,25.40
2018-04-22T17:24:06.523Z,25.40
2018-04-22T17:29:05.059Z,25.20
2018-04-22T17:31:33.948Z,25.20
2018-04-22T17:34:02.940Z,25.20
2018-04-22T17:36:31.168Z,25.10
2018-04-22T17:38:59.439Z,25.10
2018-04-22T17:41:27.672Z,25.00
2018-04-22T17:43:55.931Z,25.00
2018-04-22T17:46:24.562Z,25.00
2018-04-22T17:48:53.551Z,25.00
2018-04-22T17:51:21.783Z,24.90
2018-04-22T17:53:50.854Z,24.90
2018-04-22T17:56:19.871Z,25.00
2018-04-22T18:01:19.112Z,25.00
2018-04-22T18:06:16.791Z,25.00
2018-04-22T18:08:45.072Z,25.00
2018-04-22T18:11:13.299Z,25.00
2018-04-22T18:13:41.527Z,25.00
2018-04-22T18:16:10.931Z,25.00
2018-04-22T18:18:39.160Z,25.00
2018-04-22T18:21:07.400Z,25.00
2018-04-22T18:23:35.670Z,24.90
2018-04-22T18:26:03.914Z,24.90
2018-04-22T18:28:32.131Z,24.80
2018-04-22T18:31:00.399Z,24.80
2018-04-22T18:33:28.631Z,24.60
2018-04-22T18:35:57.641Z,24.50
2018-04-22T18:38:25.919Z,24.40
2018-04-22T18:40:54.151Z,24.30
2018-04-22T18:43:22.390Z,24.20
2018-04-22T18:45:50.672Z,24.10
2018-04-22T18:48:20.402Z,24.00
2018-04-22T18:50:49.427Z,23.90
2018-04-22T18:53:18.467Z,23.80
2018-04-22T18:55:46.704Z,23.70
2018-04-22T18:58:14.926Z,23.60
2018-04-22T19:00:43.199Z,23.50
2018-04-22T19:03:11.450Z,23.50
2018-04-22T19:05:41.185Z,23.40
2018-04-22T19:08:10.227Z,23.30
2018-04-22T19:10:39.223Z,23.20
2018-04-22T19:13:08.223Z,23.10
2018-04-22T19:15:36.495Z,23.00
2018-04-22T19:20:34.475Z,22.80
2018-04-22T19:23:02.755Z,22.70
2018-04-22T19:25:32.102Z,22.60
2018-04-22T19:28:00.362Z,22.50
2018-04-22T19:30:28.599Z,22.40
2018-04-22T19:32:56.835Z,22.40
2018-04-22T19:35:26.639Z,22.30
2018-04-22T19:37:54.871Z,22.20
2018-04-22T19:40:23.125Z,22.20
2018-04-22T19:42:51.410Z,22.10
2018-04-22T19:45:19.643Z,22.10
2018-04-22T19:47:47.873Z,22.10
2018-04-22T19:50:16.163Z,22.00
2018-04-22T19:52:45.182Z,22.00
2018-04-22T19:55:14.194Z,21.90
2018-04-22T19:57:43.622Z,21.90
2018-04-22T20:00:11.851Z,21.90
2018-04-22T20:02:40.091Z,21.80
2018-04-22T20:05:08.408Z,21.80
2018-04-22T20:07:37.771Z,21.70
2018-04-22T20:10:06.012Z,21.70
2018-04-22T20:12:34.294Z,21.60
2018-04-22T20:15:02.539Z,21.50
2018-04-22T20:17:30.768Z,21.50
2018-04-22T20:20:00.543Z,21.40
2018-04-22T20:22:28.770Z,21.40
2018-04-22T20:24:57.046Z,21.30
2018-04-22T20:27:26.779Z,21.20
2018-04-22T20:29:55.026Z,21.10
2018-04-22T20:32:23.283Z,21.10
2018-04-22T20:34:51.577Z,21.00
2018-04-22T20:37:19.812Z,20.90
2018-04-22T20:39:48.040Z,20.90
2018-04-22T20:42:17.476Z,20.90
2018-04-22T20:44:46.472Z,20.90
2018-04-22T20:47:15.474Z,20.80
2018-04-22T20:49:43.830Z,20.80
2018-04-22T20:52:12.087Z,20.70
2018-04-22T20:54:40.350Z,20.70
2018-04-22T20:57:08.627Z,20.70
2018-04-22T20:59:36.880Z,20.60
2018-04-22T21:02:05.119Z,20.60
2018-04-22T21:07:03.151Z,20.50
2018-04-22T21:09:32.583Z,20.40
2018-04-22T21:12:01.592Z,20.30
2018-04-22T21:14:29.827Z,20.30
2018-04-22T21:16:58.868Z,20.30
2018-04-22T21:19:27.107Z,20.20
2018-04-22T21:21:55.395Z,20.20
2018-04-22T21:26:53.504Z,20.10
2018-04-22T21:31:51.651Z,20.10
2018-04-22T21:34:19.890Z,20.10
2018-04-22T21:36:48.167Z,20.00
2018-04-22T21:39:16.412Z,20.00
2018-04-22T21:41:46.154Z,20.00
2018-04-22T21:44:14.442Z,19.90
2018-04-22T21:46:43.080Z,19.90
2018-04-22T21:49:11.327Z,19.80
2018-04-22T21:51:40.608Z,19.70
2018-04-22T21:54:08.853Z,19.70
2018-04-22T21:59:07.122Z,19.60
2018-04-22T22:01:36.867Z,19.50
2018-04-22T22:04:05.114Z,19.50
2018-04-22T22:06:33.388Z,19.50
2018-04-22T22:09:01.633Z,19.50
2018-04-22T22:11:29.867Z,19.40
2018-04-22T22:13:59.649Z,19.40
2018-04-22T22:16:27.888Z,19.40
2018-04-22T22:18:56.129Z,19.40
2018-04-22T22:21:24.463Z,19.40
2018-04-22T22:23:52.703Z,19.40
2018-04-22T22:26:20.943Z,19.30
2018-04-22T22:28:49.215Z,19.30
2018-04-22T22:31:18.218Z,19.30
2018-04-22T22:36:17.480Z,19.20
2018-04-22T22:41:15.199Z,19.20
2018-04-22T22:43:43.438Z,19.20
2018-04-22T22:46:12.852Z,19.10
2018-04-22T22:48:41.491Z,19.10
2018-04-22T22:51:09.732Z,19.10
2018-04-22T22:53:37.967Z,19.10
2018-04-22T22:56:06.263Z,19.00
2018-04-22T22:58:34.519Z,19.00
2018-04-22T23:01:03.530Z,18.90
2018-04-22T23:03:31.802Z,18.90
2018-04-22T23:06:00.811Z,19.00
2018-04-22T23:08:29.820Z,19.00
2018-04-22T23:10:58.212Z,19.00
2018-04-22T23:13:26.449Z,18.90
2018-04-22T23:18:25.324Z,18.80
2018-04-22T23:23:23.063Z,18.80
2018-04-22T23:25:51.303Z,18.80
2018-04-22T23:28:19.551Z,18.80
2018-04-22T23:33:18.067Z,18.90
2018-04-22T23:35:47.445Z,18.90
2018-04-22T23:38:15.727Z,18.90
2018-04-22T23:40:43.970Z,18.90
2018-04-22T23:43:12.203Z,19.00
2018-04-22T23:45:40.477Z,19.00
2018-04-22T23:48:08.771Z,19.00
2018-04-22T23:50:38.123Z,19.10
2018-04-22T23:53:06.363Z,19.10
2018-04-22T23:55:34.639Z,19.00
2018-04-22T23:58:02.878Z,19.10
